Terminal Aerodrome Forecast
Issued by NWS

Home | Current Version | Previous Version | Text Only | Print | Product List | Glossary On
Versions: 1 2 3 4 5 6 7 8 9 10 11 12 13 14 15 16 17 18 19 20
000
FTUS46 KLOX 181800 AAA
TAFSBA
TAF AMD
KSBA 181849Z 1819/1918 04006KT P6SM -SHRA BKN015 OVC025
     FM182000 23006KT P6SM BKN025
     FM190000 VRB03KT P6SM SCT025 BKN035
     FM190300 VRB03KT P6SM OVC019
     FM191600 VRB03KT P6SM SCT020 BKN250=

USA.gov is the U.S. government's official web portal to all federal, state and local government web resources and services.